Portada
METAR-TAF:

METAR-TAF

Aeroports :

Fuzhou, Xina

latitud: 26-05N, longitud: 119-17E, altitud: 85 m

Observació

L'informe es va fer fa 16 minuts, a les 10:00 UTC
Vent 10 kt del Nord/Nord-Est
Temperatura 16°C
Humitat 72%
Pressió 1018 hPa
Visibilitat 10 km o més
sense núvols per sota de 1500 mi sense presència de cumulonimbus.

METAR: ZSFZ 081000Z 03005MPS CAVOK 16/11 Q1018 NOSIG

Hora: 18:16 (10:16 UTC)

Pronòstic

L'informe es va fer fa 7 hores i 6 minuts, a les 03:10 UTC
Pronòstic vàlid del 08 a les 06 UTC al 09 a les 06 UTC
Vent 8 kt del Nord-Est
Visibilitat: 6000 m
Núvols disperses a una alçada de 3000 ft

TAF: ZSFZ 080310Z 0806/0906 04004MPS 6000 SCT030 TX20/0806Z TN12/0821Z

Observacions i pronòstics meteorològics de més de 4000 aeroports (METAR i TAF).

Les estacions disponibles són els punts grocs i vermells al mapa.

Posi el ratolí al punt desitjat per veure el nom de l'estació.

Feu clic per veure les observacions i els pronòstics meteorològics.

Per canviar el mapa: feu clic els botons verds amb una creu de color negre per apropar; al botó verd amb un guió per allunyar la imatge; o en les fletxes verdes per a mapes adjacents.


METAR-TAF: